Pueblo Of Acoma, NM

5:43 AM MDT on October 02, 2014 (GMT -0600)
Grants-Milan Municipal | Change Station
CLOSE
Current Station
Airport
Location: Grants-Milan,
Elevation: 6519 ft
Nearby Weather Stations
Active Advisory: Special Statement

Elev 6519 ft 35.17 °N, 107.90 °W | Updated -2006 second ago

Clear
Clear
32 °F
Feels Like 28 °F
N
5
Wind Variable Wind from NW

Today
High -- | Low -- °F
--% Chance of Precip.
Yesterday
High -- | Low -- °F
Precip. -- in
7:05 AM 6:52 PM
First Quarter, 58% visible
Pressure 30.04 in
Visibility 10.0 miles
Clouds Clear
Windchill 28 °F
Dew Point 28 °F
Humidity 87%
Rainfall 0.00 in
Snow Depth 22 in , 1 in , 0 in
UV 0 out of 12
Pollen 6.00 out of 12
Air Quality Not available.
Flu Activity Not available.
METAR KGNT 011217Z AUTO 31004KT 10SM CLR 00/M02 A3004 RMK AO2

More Conditions Fewer Conditions

Pressure 30.04 in
Visibility 10.0 miles
Clouds Clear
Windchill 28 °F
Dew Point 28 °F
Humidity 87%
Rainfall 0.00 in
Snow Depth 22 in , 1 in , 0 in
UV 0 out of 12
Pollen 6.00 out of 12
Air Quality Not available.
Flu Activity Not available.
METAR KGNT 011217Z AUTO 31004KT 10SM CLR 00/M02 A3004 RMK AO2

More Conditions Fewer Conditions

10-Day Weather Forecast

Almanac

Astronomy

Oct. 02, 2014 Rise Set
Actual Time 7:05 AM MDT 6:52 PM MDT
Civil Twilight 6:40 AM MDT 7:18 PM MDT
Nautical Twilight 6:11 AM MDT 7:47 PM MDT
Astronomical Twilight 5:41 AM MDT 8:16 PM MDT
Moon 2:49 PM MDT 12:38 AM MDT
Length of Visible Light 12h 37m
Length of Day
11h 46m
Tomorrow will be 2m 11s shorter.
First Quarter, 58% of the Moon is Illuminated
Today
First Quarter
Oct 8
Full
Oct 15
Last Quarter
Oct 23
New
Oct 30
First Quarter

Today's Extremes

State Highs State Lows

Community

WunderPhotos

Upload Photos

1,758,221 photos uploaded!

WunderBlogs® & News

Nearby

Snow Depth

Station Depth Elevation
Silver Creek Divide 22 in 9000 ft
Tolby 1 in 10180 ft
Sierra Blanca 0 in 10280 ft
Hopewell 1 in 10000 ft
Signal Peak 1 in 8360 ft

Earthquake Activity

City Distance Mag. Time & Date
No recent earthquake activity has been reported nearby.
Minimum magnitude displayed is 2.5.

Coastal Water Temperatures

Place Temperature
No Stations Reporting

Nearby Weather Stations